Terminal Aerodrome Forecast
Issued by NWS

Home | Current Version | Previous Version | Text Only | Print | Product List | Glossary On
Versions: 1 2 3 4 5 6 7 8 9 10 11 12 13 14 15 16 17 18 19 20 21 22
000
FTAK31 PANC 240306 AAC
TAFADL
TAF AMD
PADL 240306Z 2403/2424 15011KT 6SM -RA SCT009 OVC017
     FM240600 15010KT 5SM -RA BKN008 OVC015
     FM241800 19015KT P6SM -SHRA SCT010 BKN025 OVC035=

USA.gov is the U.S. government's official web portal to all federal, state and local government web resources and services.